Time;durP1;ratioP1;P1;durP2;ratioP2;P2;SDS_P1;SDS_P2;PMS_P1;PMS_P2;Temp;Humidity;BMP_temperature;BMP_pressure;BME280_temperature;BME280_humidity;BME280_pressure;Samples;Min_cycle;Max_cycle;Signal;HPM_P1;HPM_P2
2021/07/06 00:01:57;;;;;;;19.37;17.57;;;;;;;18.05;74.86;98656.12;124821;1093;64269;-78
2021/07/06 00:04:23;;;;;;;18.77;16.87;;;;;;;18.04;75.36;98650.91;124846;1093;64309;-78
2021/07/06 00:06:50;;;;;;;26.47;18.03;;;;;;;18.04;75.36;98651.74;124784;1093;64443;-78
2021/07/06 00:09:16;;;;;;;17.93;16.13;;;;;;;18.05;75.66;98652.58;124778;1093;64663;-78
2021/07/06 00:11:43;;;;;;;17.73;15.90;;;;;;;18.02;75.46;98648.34;124838;1093;64287;-78
2021/07/06 00:14:10;;;;;;;17.90;16.03;;;;;;;17.99;75.51;98652.20;124798;1093;64286;-78
2021/07/06 00:16:37;;;;;;;17.73;15.90;;;;;;;17.91;75.83;98654.85;124874;1093;64287;-78
2021/07/06 00:19:06;;;;;;;17.88;15.98;;;;;;;17.86;75.69;98657.17;124789;1091;64377;-78
2021/07/06 00:21:33;;;;;;;17.93;16.10;;;;;;;17.81;75.92;98669.44;124770;1093;64370;-78
2021/07/06 00:23:59;;;;;;;17.17;15.37;;;;;;;17.78;76.16;98667.87;124757;1093;64335;-77
2021/07/06 00:26:26;;;;;;;16.10;14.47;;;;;;;17.76;76.15;98676.09;124784;1093;64285;-77
2021/07/06 00:28:52;;;;;;;16.83;14.87;;;;;;;17.74;76.54;98663.77;124817;1093;64270;-78
2021/07/06 00:31:19;;;;;;;17.00;15.30;;;;;;;17.72;76.41;98666.64;124783;1093;64287;-78
2021/07/06 00:33:46;;;;;;;17.20;15.40;;;;;;;17.70;76.49;98667.80;124778;1093;64426;-78
2021/07/06 00:36:13;;;;;;;16.17;14.50;;;;;;;17.68;77.06;98667.95;124809;1093;64782;-78
2021/07/06 00:38:40;;;;;;;16.13;14.50;;;;;;;17.71;77.56;98675.72;124791;1093;64245;-78
2021/07/06 00:41:06;;;;;;;17.53;15.73;;;;;;;17.77;77.26;98676.94;124773;1093;64284;-78
2021/07/06 00:43:36;;;;;;;16.77;15.00;;;;;;;17.81;77.53;98675.67;124848;1093;64241;-78
2021/07/06 00:46:04;;;;;;;;;;;;;;;17.82;77.42;98677.34;124777;1093;64267;-78
2021/07/06 00:48:32;;;;;;;15.63;14.07;;;;;;;17.78;77.20;98678.65;124867;1093;64242;-77
2021/07/06 00:51:00;;;;;;;16.40;14.87;;;;;;;17.77;77.14;98675.11;124897;1093;64283;-77
2021/07/06 00:53:27;;;;;;;15.20;13.60;;;;;;;17.74;76.97;98682.64;124861;1093;64392;-78
2021/07/06 00:55:56;;;;;;;16.30;14.60;;;;;;;17.77;77.53;98683.20;124821;1093;64309;-78
2021/07/06 00:58:23;;;;;;;;;;;;;;;17.74;77.66;98680.79;124854;1093;64306;-78
2021/07/06 01:00:51;;;;;;;16.20;14.70;;;;;;;17.67;77.18;98681.59;124814;1093;64267;-78
2021/07/06 01:03:17;;;;;;;15.50;14.03;;;;;;;17.57;77.39;98681.67;124799;1093;64309;-78
2021/07/06 01:05:44;;;;;;;16.83;13.73;;;;;;;17.51;77.26;98685.84;124857;1093;64345;-77
2021/07/06 01:08:11;;;;;;;15.37;13.70;;;;;;;17.49;77.79;98685.13;124789;1093;64187;-77
2021/07/06 01:10:38;;;;;;;14.90;13.50;;;;;;;17.47;78.42;98687.13;124767;1093;64450;-77
2021/07/06 01:13:06;;;;;;;14.60;13.13;;;;;;;17.47;78.14;98683.59;124779;1093;64305;-77
2021/07/06 01:15:33;;;;;;;15.00;13.00;;;;;;;17.48;78.55;98686.15;124785;1093;64223;-77
2021/07/06 01:18:17;;;;;;;14.20;12.80;;;;;;;17.47;78.20;98681.73;124827;1092;64293;-77
2021/07/06 01:20:52;;;;;;;14.00;12.43;;;;;;;17.46;78.04;98692.69;124895;1093;64309;-78
2021/07/06 01:23:26;;;;;;;13.23;11.93;;;;;;;17.45;78.42;98690.98;124828;1093;64377;-78
2021/07/06 01:25:56;;;;;;;14.60;11.97;;;;;;;17.39;78.11;98687.05;124811;1093;64312;-78
2021/07/06 01:28:22;;;;;;;14.83;13.10;;;;;;;17.38;78.45;98679.98;124812;1093;64759;-78
2021/07/06 01:30:50;;;;;;;13.80;12.50;;;;;;;17.26;78.58;98687.42;124826;1093;64309;-78
2021/07/06 01:33:28;;;;;;;14.83;13.33;;;;;;;17.15;78.74;98687.66;124804;1093;64204;-78
2021/07/06 01:36:00;;;;;;;15.17;13.67;;;;;;;17.07;78.87;98683.03;124792;1093;64395;-78
2021/07/06 01:38:27;;;;;;;15.93;14.43;;;;;;;17.06;79.36;98685.86;124829;1093;64338;-78
2021/07/06 01:40:55;;;;;;;16.20;14.63;;;;;;;17.06;79.13;98678.66;124823;1093;64265;-78
2021/07/06 01:43:22;;;;;;;15.73;14.13;;;;;;;17.08;79.37;98683.87;124825;1093;64242;-78
2021/07/06 01:45:48;;;;;;;16.77;15.07;;;;;;;17.11;79.52;98680.87;124799;1093;64328;-78
2021/07/06 01:48:15;;;;;;;14.17;12.77;;;;;;;17.14;79.40;98687.80;124823;1093;64281;-77
2021/07/06 01:50:43;;;;;;;15.33;13.73;;;;;;;17.16;79.49;98681.26;124798;1093;64394;-78
2021/07/06 01:53:16;;;;;;;15.23;13.60;;;;;;;17.18;79.67;98681.96;124860;1093;64293;-78
2021/07/06 01:55:45;;;;;;;15.97;14.43;;;;;;;17.23;79.42;98685.05;124853;1093;64283;-78
2021/07/06 01:58:14;;;;;;;17.10;15.35;;;;;;;17.22;79.78;98688.75;124832;1093;64242;-78
2021/07/06 02:00:47;;;;;;;15.83;14.13;;;;;;;17.22;79.88;98682.49;124800;1093;64251;-78
2021/07/06 02:03:14;;;;;;;17.40;15.60;;;;;;;17.21;79.75;98684.34;124808;1093;64210;-78
2021/07/06 02:05:46;;;;;;;18.57;16.77;;;;;;;17.21;79.82;98689.73;124759;1093;64268;-78
2021/07/06 02:08:16;;;;;;;16.00;14.30;;;;;;;17.15;79.76;98694.89;124798;1093;64241;-78
2021/07/06 02:10:44;;;;;;;15.45;13.85;;;;;;;17.09;79.68;98693.66;124805;1093;64287;-78
2021/07/06 02:13:14;;;;;;;13.83;12.30;;;;;;;17.01;79.40;98694.41;124846;1093;64310;-78
2021/07/06 02:15:41;;;;;;;;;;;;;;;16.96;79.65;98699.41;124804;1093;64249;-78
2021/07/06 02:18:14;;;;;;;13.77;12.47;;;;;;;16.89;79.73;98691.06;124788;1093;64194;-78
2021/07/06 02:20:41;;;;;;;12.83;11.73;;;;;;;16.84;80.00;98689.83;124846;1093;64210;-78
2021/07/06 02:23:08;;;;;;;14.53;13.03;;;;;;;16.80;79.85;98691.14;124770;1093;64341;-78
2021/07/06 02:25:35;;;;;;;13.70;12.37;;;;;;;16.74;80.13;98688.99;124790;1093;64281;-78
2021/07/06 02:28:02;;;;;;;14.67;13.27;;;;;;;16.74;80.28;98688.99;124812;1093;64424;-78
2021/07/06 02:30:29;;;;;;;14.00;12.60;;;;;;;16.74;80.11;98689.83;124784;1093;64267;-78
2021/07/06 02:32:56;;;;;;;14.80;13.40;;;;;;;16.72;80.40;98689.16;124801;1093;64309;-78
2021/07/06 02:35:26;;;;;;;14.33;12.93;;;;;;;16.73;80.28;98687.31;124777;1093;64191;-78
2021/07/06 02:38:01;;;;;;;12.53;11.10;;;;;;;16.73;80.51;98688.15;124755;1093;64338;-78
2021/07/06 02:40:29;;;;;;;14.40;13.00;;;;;;;16.76;80.33;98681.63;124847;1093;64331;-78
2021/07/06 02:42:58;;;;;;;14.13;12.67;;;;;;;16.78;80.67;98680.51;124800;1093;64279;-78
2021/07/06 02:45:26;;;;;;;14.00;12.60;;;;;;;16.84;80.82;98687.13;124868;1093;64265;-78
2021/07/06 02:47:53;;;;;;;15.10;13.40;;;;;;;16.83;80.61;98686.29;124839;1091;64386;-78
2021/07/06 02:50:21;;;;;;;14.73;13.20;;;;;;;16.84;80.47;98689.83;124870;1093;64380;-78
2021/07/06 02:52:49;;;;;;;15.37;13.90;;;;;;;16.86;80.78;98688.67;124850;1093;64274;-78
2021/07/06 02:55:16;;;;;;;14.95;13.45;;;;;;;16.88;80.68;98686.69;124793;1093;64270;-78
2021/07/06 02:57:44;;;;;;;15.03;13.43;;;;;;;16.92;80.48;98689.91;124815;1093;64210;-78
2021/07/06 03:00:15;;;;;;;13.67;12.30;;;;;;;16.95;80.54;98692.30;124794;1093;64213;-78
2021/07/06 03:02:46;;;;;;;13.30;12.03;;;;;;;16.99;80.70;98690.17;124772;1093;64361;-78
2021/07/06 03:05:15;;;;;;;14.43;12.93;;;;;;;17.02;80.09;98685.33;124777;1093;64248;-78
2021/07/06 03:07:43;;;;;;;14.33;12.57;;;;;;;17.05;80.42;98690.41;124829;1093;64273;-78
2021/07/06 03:10:15;;;;;;;14.77;13.30;;;;;;;17.07;80.13;98688.41;124773;1093;64257;-78
2021/07/06 03:12:42;;;;;;;15.83;14.23;;;;;;;17.14;80.36;98685.10;124751;1093;64306;-79
2021/07/06 03:15:12;;;;;;;15.97;14.37;;;;;;;17.17;80.24;98691.05;124802;1093;64418;-78
2021/07/06 03:17:39;;;;;;;15.73;13.50;;;;;;;17.19;80.22;98691.72;124816;1093;64210;-77
2021/07/06 03:20:09;;;;;;;13.93;12.43;;;;;;;17.21;80.12;98683.50;124780;1093;64293;-78
2021/07/06 03:22:35;;;;;;;14.03;12.58;;;;;;;17.26;79.91;98695.51;124901;1093;64334;-78
2021/07/06 03:25:06;;;;;;;13.10;11.80;;;;;;;17.30;80.22;98691.52;124799;1093;64283;-78
2021/07/06 03:27:36;;;;;;;14.73;13.03;;;;;;;17.40;79.91;98690.59;124759;1093;64419;-77
2021/07/06 03:30:09;;;;;;;16.03;13.23;;;;;;;17.89;79.95;98691.90;124862;1093;64884;-78
2021/07/06 03:32:35;;;;;;;13.17;11.97;;;;;;;19.13;78.17;98679.92;124793;1093;64290;-78
2021/07/06 03:35:04;;;;;;;15.20;11.87;;;;;;;20.06;76.50;98669.69;124806;1093;64287;-79
2021/07/06 03:37:30;;;;;;;12.70;11.50;;;;;;;20.98;74.06;98669.26;124812;1093;64290;-78
2021/07/06 03:39:57;;;;;;;11.80;10.77;;;;;;;21.73;72.45;98668.64;124780;1093;64329;-78
2021/07/06 03:42:23;;;;;;;12.90;11.70;;;;;;;22.51;71.64;98670.12;124808;1093;64389;-78
2021/07/06 03:44:50;;;;;;;13.00;11.90;;;;;;;23.23;69.34;98668.55;124806;1093;64281;-78
2021/07/06 03:47:16;;;;;;;12.20;11.05;;;;;;;23.93;68.40;98664.22;124773;1093;64274;-78
2021/07/06 03:49:43;;;;;;;11.70;10.50;;;;;;;24.63;66.87;98664.34;124797;1093;65226;-78
2021/07/06 03:52:11;;;;;;;11.93;10.53;;;;;;;25.10;65.03;98654.48;124855;1093;64315;-78
2021/07/06 03:54:37;;;;;;;11.33;10.30;;;;;;;25.52;63.56;98666.17;124813;1093;64347;-78
2021/07/06 03:57:04;;;;;;;12.80;11.57;;;;;;;25.88;62.27;98668.53;124779;1093;64194;-77
2021/07/06 03:59:30;;;;;;;11.87;10.77;;;;;;;26.25;60.86;98674.41;124822;1093;64214;-77
2021/07/06 04:01:57;;;;;;;12.97;11.67;;;;;;;26.59;60.15;98667.03;124789;1092;64306;-78
2021/07/06 04:04:24;;;;;;;11.90;10.80;;;;;;;27.02;59.45;98681.00;124803;1093;64280;-78
2021/07/06 04:06:50;;;;;;;11.90;10.90;;;;;;;27.44;58.01;98692.41;124786;1093;64358;-77
2021/07/06 04:09:18;;;;;;;11.97;11.00;;;;;;;27.78;56.69;98688.41;124797;1093;64303;-78
2021/07/06 04:11:44;;;;;;;10.90;10.07;;;;;;;28.09;55.93;98681.23;124805;1092;64680;-78
2021/07/06 04:14:11;;;;;;;11.70;10.50;;;;;;;28.38;55.31;98687.09;124807;1093;64296;-78
2021/07/06 04:16:38;;;;;;;11.77;10.77;;;;;;;28.63;54.49;98684.36;124870;1093;64268;-78
2021/07/06 04:19:08;;;;;;;11.47;10.33;;;;;;;28.86;53.65;98691.92;124818;1093;64191;-78
2021/07/06 04:21:36;;;;;;;11.07;10.07;;;;;;;28.92;53.10;98684.67;124805;1093;64242;-78
2021/07/06 04:24:03;;;;;;;10.50;9.50;;;;;;;28.91;52.38;98685.72;124787;1093;64284;-78
2021/07/06 04:26:30;;;;;;;10.17;9.37;;;;;;;28.98;52.19;98691.98;124839;1093;64244;-78
2021/07/06 04:28:56;;;;;;;10.30;9.47;;;;;;;29.08;51.27;98681.34;124780;1092;64176;-78
2021/07/06 04:31:23;;;;;;;9.87;8.90;;;;;;;29.32;50.87;98679.55;124791;1093;64383;-78
2021/07/06 04:33:49;;;;;;;10.37;9.57;;;;;;;29.43;50.83;98680.66;124783;1093;64306;-77
2021/07/06 04:36:16;;;;;;;10.57;9.47;;;;;;;29.56;49.89;98691.45;124818;1093;64273;-78
2021/07/06 04:38:44;;;;;;;9.53;8.50;;;;;;;29.67;49.50;98687.94;124767;1093;64291;-77
2021/07/06 04:41:11;;;;;;;9.93;9.13;;;;;;;29.85;48.87;98688.95;124779;1093;64293;-77
2021/07/06 04:43:38;;;;;;;9.73;8.73;;;;;;;29.90;48.47;98687.17;124840;1093;64191;-77
2021/07/06 04:46:04;;;;;;;9.37;8.67;;;;;;;29.91;48.14;98688.86;124851;1093;64274;-78
2021/07/06 04:48:31;;;;;;;11.53;9.40;;;;;;;29.95;47.87;98692.80;124828;1092;64389;-78
2021/07/06 04:51:04;;;;;;;9.77;8.97;;;;;;;30.08;47.44;98699.99;124811;1093;64287;-78
2021/07/06 04:53:31;;;;;;;9.57;8.67;;;;;;;30.27;47.23;98697.18;124752;1093;64239;-78
2021/07/06 04:55:59;;;;;;;9.97;9.27;;;;;;;30.55;47.23;98696.48;124793;1093;64351;-77
2021/07/06 04:58:25;;;;;;;9.63;8.80;;;;;;;31.06;46.53;98703.13;124803;1093;64316;-77
2021/07/06 05:00:52;;;;;;;9.70;8.90;;;;;;;31.18;46.16;98703.95;124802;1093;64261;-77
2021/07/06 05:03:19;;;;;;;9.10;8.20;;;;;;;31.27;45.48;98707.98;124840;1093;64284;-77
2021/07/06 05:05:46;;;;;;;8.40;7.70;;;;;;;31.37;45.16;98693.63;124759;1093;64264;-77
2021/07/06 05:08:12;;;;;;;8.65;7.85;;;;;;;31.34;44.85;98702.34;124832;1093;64344;-78
2021/07/06 05:10:39;;;;;;;9.33;8.53;;;;;;;31.32;44.22;98703.67;124854;1093;64264;-78
2021/07/06 05:13:06;;;;;;;8.93;8.23;;;;;;;31.49;44.80;98702.69;124784;1093;64286;-77
2021/07/06 05:15:32;;;;;;;8.55;7.85;;;;;;;31.63;44.09;98699.63;124774;1093;64290;-78
2021/07/06 05:17:59;;;;;;;8.70;7.63;;;;;;;31.54;43.50;98696.41;124797;1093;64818;-78
2021/07/06 05:20:25;;;;;;;8.95;8.15;;;;;;;31.57;43.66;98706.97;124855;1093;64479;-78
2021/07/06 05:22:52;;;;;;;8.10;7.50;;;;;;;31.64;43.44;98704.88;124817;1093;64328;-77
2021/07/06 05:25:18;;;;;;;7.93;7.33;;;;;;;31.64;43.11;98709.55;124892;1093;64287;-77
2021/07/06 05:27:45;;;;;;;8.13;7.53;;;;;;;31.56;42.96;98709.95;124806;1093;64367;-78
2021/07/06 05:30:12;;;;;;;8.40;7.70;;;;;;;31.71;42.79;98708.32;124769;1092;64265;-78
2021/07/06 05:32:39;;;;;;;8.73;8.03;;;;;;;31.69;42.88;98704.97;124758;1093;64349;-78
2021/07/06 05:35:08;;;;;;;8.30;7.50;;;;;;;31.75;42.22;98713.33;124825;1093;64332;-82
2021/07/06 05:37:36;;;;;;;7.83;7.13;;;;;;;31.70;42.51;98712.17;124960;1093;64241;-79
2021/07/06 05:40:05;;;;;;;7.77;7.03;;;;;;;31.75;42.03;98719.67;124890;1093;64309;-78
2021/07/06 05:42:34;;;;;;;8.05;7.20;;;;;;;31.64;42.14;98718.65;124839;1093;64287;-77
2021/07/06 05:45:02;;;;;;;8.07;7.30;;;;;;;31.89;42.11;98723.81;124851;1093;64383;-77
2021/07/06 05:47:31;;;;;;;7.70;7.00;;;;;;;31.91;41.32;98726.30;124849;1093;64268;-77
2021/07/06 05:49:58;;;;;;;8.15;7.35;;;;;;;31.94;41.70;98720.34;124838;1093;64274;-78
2021/07/06 05:52:27;;;;;;;11.00;7.27;;;;;;;31.94;41.49;98717.59;124812;1093;64306;-77
2021/07/06 05:54:55;;;;;;;7.87;6.77;;;;;;;31.93;41.34;98726.93;124769;1093;64260;-77
2021/07/06 05:57:29;;;;;;;6.93;6.33;;;;;;;31.79;41.33;98726.38;124822;1093;64383;-77
2021/07/06 06:00:00;;;;;;;9.50;7.27;;;;;;;31.31;41.46;98724.87;124770;1093;64281;-77
2021/07/06 06:02:28;;;;;;;5.83;5.17;;;;;;;31.26;41.42;98728.34;124827;1093;64386;-77
2021/07/06 06:04:55;;;;;;;6.20;5.60;;;;;;;31.27;41.50;98729.17;124840;1093;64263;-78
2021/07/06 06:07:23;;;;;;;4.97;4.57;;;;;;;31.56;40.97;98737.50;124804;1093;64281;-78
2021/07/06 06:09:51;;;;;;;6.13;5.30;;;;;;;31.71;40.47;98729.53;124803;1093;64337;-78
2021/07/06 06:12:17;;;;;;;8.97;5.80;;;;;;;31.70;40.53;98734.22;124714;1092;64300;-77
2021/07/06 06:14:44;;;;;;;5.53;5.13;;;;;;;31.69;40.63;98740.79;124799;1093;64313;-78
2021/07/06 06:17:10;;;;;;;6.25;5.65;;;;;;;31.68;40.89;98747.39;124789;1093;64262;-78
2021/07/06 06:19:37;;;;;;;7.33;6.50;;;;;;;31.90;40.81;98750.28;124749;1093;64273;-78
2021/07/06 06:22:04;;;;;;;7.40;6.57;;;;;;;32.01;40.57;98747.74;124821;1093;64341;-78
2021/07/06 06:24:31;;;;;;;6.47;5.77;;;;;;;32.04;39.97;98748.07;124788;1093;64681;-78
2021/07/06 06:26:58;;;;;;;8.00;7.03;;;;;;;31.99;40.27;98738.88;124803;1093;64265;-79
2021/07/06 06:29:24;;;;;;;6.47;5.97;;;;;;;32.13;39.92;98734.73;124825;1093;64284;-79
2021/07/06 06:31:51;;;;;;;7.37;6.67;;;;;;;32.13;40.06;98741.08;124788;1093;64280;-78
2021/07/06 06:34:17;;;;;;;8.65;7.95;;;;;;;32.13;39.81;98730.05;124818;1093;64436;-78
2021/07/06 06:36:44;;;;;;;8.80;8.10;;;;;;;32.21;39.91;98734.32;124805;1093;64268;-78
2021/07/06 06:39:10;;;;;;;8.73;8.00;;;;;;;32.26;39.72;98737.16;124791;1093;64300;-78
2021/07/06 06:41:37;;;;;;;9.93;7.40;;;;;;;32.31;39.79;98731.73;124839;1093;64265;-77
2021/07/06 06:44:04;;;;;;;8.33;7.63;;;;;;;32.25;39.86;98729.13;124755;1092;64290;-78
2021/07/06 06:46:30;;;;;;;7.80;7.03;;;;;;;32.07;39.91;98731.06;124795;1093;64444;-78
2021/07/06 06:49:00;;;;;;;9.20;8.23;;;;;;;32.00;39.93;98735.89;124769;1093;64404;-77
2021/07/06 06:51:27;;;;;;;9.10;8.35;;;;;;;31.82;40.13;98731.39;124806;1093;64271;-77
2021/07/06 06:53:54;;;;;;;7.90;7.30;;;;;;;31.75;40.29;98736.20;124796;1093;64280;-77
2021/07/06 06:56:21;;;;;;;7.80;6.60;;;;;;;31.78;40.59;98741.25;124767;1093;64266;-77
2021/07/06 06:58:48;;;;;;;6.20;5.70;;;;;;;31.90;40.52;98749.45;124850;1093;64421;-77
2021/07/06 07:01:14;;;;;;;6.27;5.77;;;;;;;31.96;40.12;98753.16;124793;1093;64290;-77
2021/07/06 07:03:41;;;;;;;5.97;5.47;;;;;;;31.99;39.82;98747.15;124846;1093;64294;-77
2021/07/06 07:06:08;;;;;;;5.37;4.97;;;;;;;31.96;39.82;98751.23;124800;1093;64271;-78
2021/07/06 07:08:35;;;;;;;5.50;5.00;;;;;;;32.03;39.32;98748.34;124750;1093;64287;-78
2021/07/06 07:11:01;;;;;;;6.40;5.80;;;;;;;32.01;39.12;98751.33;124791;1093;64493;-78
2021/07/06 07:13:28;;;;;;;6.73;6.03;;;;;;;31.78;39.18;98744.01;124788;1093;64391;-78
2021/07/06 07:15:57;;;;;;;6.03;5.63;;;;;;;31.68;39.99;98749.32;124800;1093;64196;-78
2021/07/06 07:18:23;;;;;;;6.33;5.73;;;;;;;31.59;40.06;98748.02;124840;1093;64210;-78
2021/07/06 07:20:50;;;;;;;7.07;6.47;;;;;;;31.68;40.00;98752.91;124813;1093;64271;-78
2021/07/06 07:23:16;;;;;;;5.23;4.90;;;;;;;31.62;39.87;98747.53;124825;1093;64217;-78
2021/07/06 07:25:43;;;;;;;6.10;4.85;;;;;;;31.43;39.48;98744.95;124774;1093;64270;-78
2021/07/06 07:28:10;;;;;;;5.30;4.80;;;;;;;31.35;40.06;98747.23;124765;1093;64155;-78
2021/07/06 07:30:36;;;;;;;5.13;4.73;;;;;;;31.33;40.11;98750.22;124773;1093;64290;-78
2021/07/06 07:33:03;;;;;;;4.90;4.47;;;;;;;31.04;39.68;98746.57;124769;1093;64218;-78
2021/07/06 07:35:30;;;;;;;5.65;5.15;;;;;;;30.53;40.44;98753.63;124803;1093;64637;-78
2021/07/06 07:37:56;;;;;;;8.10;5.07;;;;;;;30.18;41.26;98755.23;124791;1093;64280;-77
2021/07/06 07:40:24;;;;;;;7.00;5.60;;;;;;;29.86;41.87;98751.06;124805;1093;64214;-77
2021/07/06 07:42:51;;;;;;;6.97;5.10;;;;;;;29.62;42.48;98758.34;124815;1093;64281;-77
2021/07/06 07:45:18;;;;;;;5.60;5.10;;;;;;;29.45;43.07;98756.23;124774;1092;64284;-77
2021/07/06 07:47:44;;;;;;;5.77;5.37;;;;;;;29.26;43.21;98754.59;124774;1092;64415;-77
2021/07/06 07:50:11;;;;;;;5.77;5.27;;;;;;;29.16;43.77;98757.03;124796;1093;64300;-76
2021/07/06 07:52:39;;;;;;;5.80;5.30;;;;;;;29.11;43.40;98757.70;124826;1093;64293;-77
2021/07/06 07:55:07;;;;;;;8.00;5.67;;;;;;;28.94;44.10;98753.84;124775;1093;64225;-77
2021/07/06 07:57:34;;;;;;;5.67;5.17;;;;;;;28.64;43.71;98752.67;124811;1093;64369;-77
2021/07/06 08:00:00;;;;;;;6.40;5.75;;;;;;;28.41;44.47;98761.52;124777;1093;64421;-77
2021/07/06 08:02:27;;;;;;;6.40;5.80;;;;;;;28.33;45.03;98764.53;124812;1093;64280;-77
2021/07/06 08:04:53;;;;;;;6.00;5.50;;;;;;;28.32;45.18;98760.09;124791;1092;64210;-77
2021/07/06 08:07:20;;;;;;;5.63;5.13;;;;;;;28.25;44.99;98753.82;124758;1093;64242;-77
2021/07/06 08:09:47;;;;;;;5.30;4.93;;;;;;;28.38;45.09;98763.84;124766;1092;64213;-77
2021/07/06 08:12:13;;;;;;;5.30;4.90;;;;;;;28.36;45.48;98758.60;124809;1093;64370;-77
2021/07/06 08:14:41;;;;;;;5.60;5.20;;;;;;;28.42;45.67;98765.09;124801;1093;64223;-77
2021/07/06 08:17:09;;;;;;;5.57;4.77;;;;;;;28.53;46.30;98766.28;124803;1093;64287;-78
2021/07/06 08:19:35;;;;;;;6.30;5.70;;;;;;;28.60;46.20;98764.34;124754;1093;64213;-78
2021/07/06 08:22:04;;;;;;;6.00;4.93;;;;;;;28.75;46.36;98759.31;124758;1093;64273;-78
2021/07/06 08:24:31;;;;;;;8.00;5.60;;;;;;;28.89;46.22;98758.13;124899;1093;64450;-78
2021/07/06 08:26:58;;;;;;;6.67;5.57;;;;;;;28.89;45.81;98754.55;124852;1093;64279;-78
2021/07/06 08:29:25;;;;;;;5.73;5.23;;;;;;;28.87;45.46;98746.53;124870;1093;64268;-78
2021/07/06 08:31:52;;;;;;;5.73;5.30;;;;;;;28.84;44.80;98747.00;124922;1093;64270;-78
2021/07/06 08:34:18;;;;;;;6.87;6.27;;;;;;;28.86;44.81;98749.52;125150;1093;64622;-78
2021/07/06 08:36:46;;;;;;;5.70;5.13;;;;;;;28.79;44.58;98740.52;125195;1092;64227;-78
2021/07/06 08:39:12;;;;;;;6.40;5.20;;;;;;;28.61;44.38;98741.32;125051;1093;64317;-78
2021/07/06 08:41:41;;;;;;;5.97;5.57;;;;;;;28.50;44.12;98742.06;124804;1093;64254;-78
2021/07/06 08:44:08;;;;;;;7.45;5.10;;;;;;;28.45;44.71;98740.83;124807;1093;64284;-78
2021/07/06 08:46:39;;;;;;;7.00;5.20;;;;;;;28.50;45.09;98742.90;124771;1091;64267;-78
2021/07/06 08:49:06;;;;;;;6.33;5.77;;;;;;;28.54;45.02;98738.66;124785;1093;64242;-78
2021/07/06 08:51:34;;;;;;;5.77;5.27;;;;;;;28.59;44.60;98740.70;124859;1093;64360;-78
2021/07/06 08:54:01;;;;;;;6.07;5.63;;;;;;;28.37;44.04;98742.98;124808;1093;64770;-78
2021/07/06 08:56:28;;;;;;;7.83;5.63;;;;;;;28.34;45.43;98732.48;124819;1093;64286;-78
2021/07/06 08:58:55;;;;;;;6.33;5.73;;;;;;;28.59;46.32;98740.70;124767;1093;64302;-78
2021/07/06 09:01:28;;;;;;;6.00;5.50;;;;;;;28.78;46.77;98744.30;124770;1093;64305;-78
2021/07/06 09:03:59;;;;;;;16.10;8.20;;;;;;;28.95;46.26;98742.66;124756;1093;64259;-77
2021/07/06 09:06:29;;;;;;;5.83;5.33;;;;;;;29.00;43.96;98741.98;124800;1092;64795;-77
2021/07/06 09:09:18;;;;;;;5.10;4.70;;;;;;;29.01;44.69;98741.73;124820;1093;64271;-78
2021/07/06 09:11:51;;;;;;;4.85;4.45;;;;;;;29.13;44.42;98741.86;124816;1093;64294;-78
2021/07/06 09:14:18;;;;;;;4.20;3.83;;;;;;;29.19;43.90;98735.45;124794;1093;64341;-78
2021/07/06 09:16:46;;;;;;;4.43;4.10;;;;;;;29.19;42.76;98732.70;124802;1093;64267;-78
2021/07/06 09:19:19;;;;;;;4.00;3.70;;;;;;;29.01;42.70;98735.41;124799;1093;64207;-76
2021/07/06 09:21:46;;;;;;;4.63;4.17;;;;;;;28.97;42.61;98739.70;124790;1093;64947;-76
2021/07/06 09:24:26;;;;;;;4.45;4.10;;;;;;;29.01;42.88;98727.19;124843;1093;64356;-76
2021/07/06 09:26:53;;;;;;;3.55;3.35;;;;;;;29.05;42.33;98733.94;124759;1093;64290;-76
2021/07/06 09:29:24;;;;;;;3.70;3.50;;;;;;;29.02;41.12;98732.45;124780;1093;64213;-76
2021/07/06 09:31:52;;;;;;;4.03;3.77;;;;;;;28.87;42.54;98730.08;124765;1093;64193;-77
2021/07/06 09:34:19;;;;;;;3.10;2.90;;;;;;;28.96;43.09;98727.86;124822;1093;64283;-77
2021/07/06 09:36:52;;;;;;;3.37;3.10;;;;;;;29.06;42.53;98727.37;124757;1093;64217;-77
2021/07/06 09:39:23;;;;;;;3.80;3.50;;;;;;;29.25;43.49;98729.05;124794;1093;64302;-78
2021/07/06 09:41:56;;;;;;;3.90;3.60;;;;;;;29.34;42.23;98729.57;124828;1093;64262;-78
2021/07/06 09:44:25;;;;;;;4.27;3.87;;;;;;;29.40;42.43;98723.14;124807;1093;64287;-78
2021/07/06 09:46:59;;;;;;;4.10;3.80;;;;;;;29.48;41.88;98719.24;124797;1093;64290;-78
2021/07/06 09:49:31;;;;;;;4.33;3.97;;;;;;;29.47;41.89;98723.91;124772;1093;64370;-76
2021/07/06 09:52:11;;;;;;;3.63;3.40;;;;;;;29.52;42.35;98717.72;124845;1093;64214;-76
2021/07/06 09:54:44;;;;;;;3.37;3.10;;;;;;;29.59;42.31;98726.69;124774;1093;64187;-77
2021/07/06 09:57:30;;;;;;;3.77;3.47;;;;;;;29.68;42.79;98725.34;124807;1093;64306;-77
2021/07/06 10:00:00;;;;;;;3.93;3.63;;;;;;;29.70;42.21;98723.20;124784;1093;64651;-77
2021/07/06 10:02:29;;;;;;;4.23;3.83;;;;;;;29.70;42.71;98720.45;124855;1093;64267;-77
2021/07/06 10:04:57;;;;;;;3.83;3.53;;;;;;;29.72;43.17;98717.45;124840;1093;64292;-77
2021/07/06 10:07:26;;;;;;;4.30;4.00;;;;;;;29.86;42.89;98716.20;124806;1093;64241;-77
2021/07/06 10:09:54;;;;;;;5.00;4.00;;;;;;;29.95;42.33;98712.03;124804;1092;64264;-77
2021/07/06 10:12:22;;;;;;;3.80;3.50;;;;;;;30.01;41.86;98714.91;124755;1093;64287;-78
2021/07/06 10:14:50;;;;;;;3.80;3.50;;;;;;;30.01;41.55;98703.92;124789;1093;64271;-78
2021/07/06 10:17:17;;;;;;;3.33;3.13;;;;;;;30.01;41.16;98703.92;124834;1093;66052;-78
2021/07/06 10:19:46;;;;;;;3.25;3.05;;;;;;;29.98;41.33;98708.81;124834;1092;64290;-78
2021/07/06 10:22:14;;;;;;;3.40;3.10;;;;;;;29.97;41.02;98700.81;124844;1092;64267;-76
2021/07/06 10:24:47;;;;;;;3.58;3.28;;;;;;;30.04;41.26;98697.95;124808;1093;64277;-77
2021/07/06 10:27:23;;;;;;;3.50;3.30;;;;;;;30.09;40.20;98690.66;124793;1093;64294;-77
2021/07/06 10:30:24;;;;;;;3.13;2.93;;;;;;;30.08;39.59;98680.75;124773;1093;64287;-78
2021/07/06 10:32:54;;;;;;;3.57;3.37;;;;;;;30.04;40.82;98679.54;124840;1093;64287;-77
2021/07/06 10:35:46;;;;;;;3.07;2.87;;;;;;;30.14;40.50;98677.05;124897;1093;64319;-77
2021/07/06 10:38:32;;;;;;;2.87;2.63;;;;;;;30.11;38.88;98677.53;124802;1093;64466;-78
2021/07/06 10:41:05;;;;;;;2.53;2.37;;;;;;;30.05;39.82;98680.41;124868;1093;64361;-76
2021/07/06 10:43:38;;;;;;;2.60;2.40;;;;;;;30.02;37.67;98676.22;124881;1093;64388;-78
2021/07/06 10:46:30;;;;;;;2.40;2.20;;;;;;;29.92;38.66;98675.95;124849;1093;64223;-78
2021/07/06 10:49:07;;;;;;;2.57;2.47;;;;;;;30.06;39.10;98680.14;124806;1093;64264;-78
2021/07/06 10:51:34;;;;;;;2.20;2.10;;;;;;;30.17;39.29;98673.81;124855;1092;64293;-78
2021/07/06 10:54:08;;;;;;;2.45;2.30;;;;;;;30.26;38.33;98670.78;124871;1093;64267;-78
2021/07/06 10:56:38;;;;;;;2.80;2.60;;;;;;;30.21;37.79;98671.45;124908;1093;64407;-79
2021/07/06 10:59:06;;;;;;;2.73;2.60;;;;;;;30.08;38.11;98669.77;124879;1092;64268;-78
2021/07/06 11:01:36;;;;;;;5.63;3.00;;;;;;;30.14;38.56;98665.22;124829;1093;64280;-77
2021/07/06 11:04:08;;;;;;;2.80;2.50;;;;;;;30.19;38.49;98666.17;124784;1093;64254;-78
2021/07/06 11:06:46;;;;;;;2.43;2.30;;;;;;;30.10;38.09;98661.29;124829;1093;64283;-77
2021/07/06 11:09:35;;;;;;;3.00;2.80;;;;;;;30.06;38.49;98663.66;124857;1092;64280;-77
2021/07/06 11:12:17;;;;;;;2.68;2.48;;;;;;;30.17;38.88;98659.24;124794;1093;64271;-78
2021/07/06 11:14:47;;;;;;;2.83;2.63;;;;;;;30.23;38.26;98657.45;124908;1093;64284;-78
2021/07/06 11:17:33;;;;;;;2.60;2.50;;;;;;;30.22;38.31;98658.53;124751;1093;64264;-76
2021/07/06 11:20:14;;;;;;;2.93;2.73;;;;;;;30.17;37.72;98643.58;124762;1093;64338;-77
2021/07/06 11:22:49;;;;;;;3.10;2.63;;;;;;;30.09;37.43;98651.35;124787;1093;64290;-78
2021/07/06 11:25:40;;;;;;;3.07;2.87;;;;;;;30.08;37.72;98639.53;124827;1093;64287;-78
2021/07/06 11:28:14;;;;;;;2.77;2.57;;;;;;;30.21;38.01;98646.71;124802;1093;64259;-78